Time;durP1;ratioP1;P1;durP2;ratioP2;P2;SDS_P1;SDS_P2;PMS_P1;PMS_P2;Temp;Humidity;BMP_temperature;BMP_pressure;BME280_temperature;BME280_humidity;BME280_pressure;Samples;Min_cycle;Max_cycle;Signal;HPM_P1;HPM_P2
2021/10/27 00:02:13;;;;;;;19.95;9.57;;;15.90;99.90;;;16.25;93.46;101984.66;4844000;29;20057;-70
2021/10/27 00:04:42;;;;;;;28.17;10.50;;;15.90;99.90;;;15.72;93.28;101880.16;4843826;29;20132;-69
2021/10/27 00:07:12;;;;;;;27.00;10.80;;;16.00;99.90;;;16.23;93.63;101975.78;4842920;29;20084;-69
2021/10/27 00:09:41;;;;;;;28.77;11.23;;;15.90;99.90;;;16.26;93.48;101981.97;4843754;29;20053;-69
2021/10/27 00:12:10;;;;;;;23.17;11.65;;;15.90;99.90;;;16.20;93.39;101981.16;4843873;29;20046;-69
2021/10/27 00:14:38;;;;;;;26.30;11.35;;;15.90;99.90;;;16.23;93.62;101975.78;4843511;29;20110;-69
2021/10/27 00:17:07;;;;;;;31.70;12.55;;;15.90;99.90;;;16.26;93.65;101986.41;4843525;29;20065;-70
2021/10/27 00:19:35;;;;;;;25.60;11.63;;;15.90;99.90;;;16.29;93.47;101989.06;4843500;29;20053;-69
2021/10/27 00:22:04;;;;;;;25.70;12.38;;;16.00;99.90;;;16.23;93.96;101986.44;4843713;29;20068;-69
2021/10/27 00:24:34;;;;;;;29.55;12.60;;;15.90;99.90;;;16.25;93.88;101984.66;4843606;29;20171;-69
2021/10/27 00:27:06;;;;;;;29.08;13.40;;;16.00;99.90;;;16.06;94.45;101975.94;4843301;29;20046;-70
2021/10/27 00:29:35;;;;;;;;;;;15.80;99.90;;;16.13;95.32;101979.41;4843904;29;20050;-66
2021/10/27 00:32:07;;;;;;;25.90;12.88;;;15.80;99.90;;;16.10;95.53;101974.97;4843923;29;19928;-67
2021/10/27 00:34:38;;;;;;;26.30;13.80;;;15.80;99.90;;;16.14;95.58;101976.72;4843839;29;20050;-67
2021/10/27 00:37:07;;;;;;;22.65;12.77;;;15.80;99.90;;;16.06;95.83;101973.28;4842759;29;20127;-67
2021/10/27 00:39:39;;;;;;;26.27;12.95;;;15.80;99.90;;;16.03;96.22;101983.06;4843919;29;20077;-67
2021/10/27 00:42:08;;;;;;;21.92;13.13;;;15.80;99.90;;;16.01;96.42;101971.50;4843837;29;20413;-67
2021/10/27 00:44:36;;;;;;;27.65;13.45;;;15.70;99.90;;;16.07;96.15;101992.81;4843508;29;20053;-67
2021/10/27 00:47:07;;;;;;;27.13;13.90;;;15.80;99.90;;;16.06;96.14;101983.94;4843566;29;20054;-67
2021/10/27 00:49:39;;;;;;;29.13;13.23;;;15.70;99.90;;;16.04;96.25;101982.19;4843521;29;20050;-67
2021/10/27 00:52:12;;;;;;;32.38;12.20;;;15.80;99.90;;;16.08;95.98;101986.59;4843780;29;20061;-66
2021/10/27 00:54:46;;;;;;;22.38;11.50;;;15.80;99.90;;;16.05;95.85;101982.16;4843698;29;20045;-66
2021/10/27 00:57:18;;;;;;;27.05;11.38;;;15.80;99.90;;;15.88;95.87;101953.84;4843444;29;20046;-66
2021/10/27 00:59:47;;;;;;;28.20;12.00;;;15.80;99.90;;;15.83;95.79;101945.88;4843417;29;20446;-67
2021/10/27 01:02:18;;;;;;;30.77;11.63;;;15.80;99.90;;;16.02;95.81;101981.31;4843389;29;20058;-66
2021/10/27 01:04:47;;;;;;;23.48;10.73;;;15.80;99.90;;;16.14;95.82;101997.22;4842384;29;20527;-67
2021/10/27 01:07:20;;;;;;;31.17;11.38;;;15.80;99.90;;;15.97;95.58;101981.34;4842384;29;20501;-66
2021/10/27 01:09:50;;;;;;;26.23;10.85;;;15.80;99.90;;;16.07;95.52;101972.34;4843164;29;20098;-67
2021/10/27 01:12:19;;;;;;;29.92;10.20;;;15.80;99.90;;;16.09;95.56;101983.00;4843385;29;20098;-66
2021/10/27 01:14:49;;;;;;;25.38;9.98;;;15.80;99.90;;;16.01;95.75;101987.53;4843011;29;20438;-67
2021/10/27 01:17:19;;;;;;;28.33;10.15;;;15.80;99.90;;;15.97;96.15;101992.00;4843244;29;20057;-66
2021/10/27 01:19:52;;;;;;;26.35;10.48;;;15.70;99.90;;;15.87;96.29;101966.31;4843221;29;20054;-66
2021/10/27 01:22:27;;;;;;;23.83;10.70;;;15.70;99.90;;;15.99;96.39;101992.88;4842819;29;20433;-66
2021/10/27 01:24:56;;;;;;;21.35;10.70;;;15.70;99.90;;;15.52;96.43;101914.16;4843500;29;20434;-66
2021/10/27 01:27:25;;;;;;;22.75;9.75;;;15.70;99.90;;;15.91;96.65;101993.88;4842871;29;20058;-66
2021/10/27 01:29:55;;;;;;;23.48;10.23;;;15.60;99.90;;;16.01;96.16;102007.09;4842874;29;20561;-66
2021/10/27 01:32:26;;;;;;;23.73;9.85;;;15.70;99.90;;;15.97;95.88;102005.34;4842865;29;20041;-68
2021/10/27 01:34:56;;;;;;;20.73;9.25;;;15.70;99.90;;;15.92;95.80;101985.84;4843049;29;20053;-69
2021/10/27 01:37:26;;;;;;;22.23;9.15;;;15.70;99.90;;;15.82;95.58;101961.91;4842874;29;20054;-69
2021/10/27 01:39:56;;;;;;;18.95;9.80;;;15.70;99.90;;;16.06;95.19;101991.06;4842726;29;20382;-69
2021/10/27 01:42:24;;;;;;;20.52;9.02;;;15.80;99.90;;;16.04;94.92;101987.53;4842611;29;20110;-67
2021/10/27 01:44:53;;;;;;;29.52;9.18;;;15.80;99.90;;;16.07;94.83;101976.81;4842994;29;20125;-67
2021/10/27 01:47:23;;;;;;;19.30;8.85;;;15.80;99.90;;;16.02;94.71;101976.88;4842911;29;20046;-68
2021/10/27 01:49:51;;;;;;;18.60;8.90;;;15.70;99.90;;;16.00;94.53;101978.66;4842828;29;20042;-68
2021/10/27 01:52:21;;;;;;;14.77;7.85;;;15.70;99.90;;;16.04;94.43;101993.75;4842486;29;20061;-67
2021/10/27 01:54:50;;;;;;;17.77;8.60;;;15.70;99.90;;;16.12;94.03;101977.66;4842895;29;20082;-68
2021/10/27 01:57:18;;;;;;;20.10;8.73;;;15.80;99.90;;;16.08;93.95;101971.47;4842981;29;20132;-67
2021/10/27 01:59:50;;;;;;;20.30;8.60;;;15.80;99.90;;;16.09;93.80;101975.91;4842683;29;20068;-67
2021/10/27 02:02:19;;;;;;;16.80;8.10;;;15.80;99.90;;;16.04;94.02;101968.84;4842219;29;20450;-68
2021/10/27 02:04:47;;;;;;;16.88;7.60;;;15.80;99.90;;;15.83;93.86;101951.22;4842382;29;20045;-67
2021/10/27 02:07:16;;;;;;;18.17;8.48;;;15.70;99.90;;;16.02;93.93;101979.53;4842623;29;20081;-67
2021/10/27 02:09:46;;;;;;;20.48;8.07;;;15.70;99.90;;;16.13;93.58;101968.75;4841365;29;20465;-67
2021/10/27 02:12:16;;;;;;;22.08;7.82;;;15.80;99.90;;;16.02;93.26;101955.50;4842343;29;20061;-68
2021/10/27 02:14:44;;;;;;;14.88;6.82;;;15.80;99.90;;;16.08;93.19;101966.13;4842656;29;20681;-68
2021/10/27 02:17:13;;;;;;;18.48;8.02;;;15.80;99.90;;;16.15;93.24;101966.94;4842656;29;20050;-67
2021/10/27 02:19:41;;;;;;;17.42;7.30;;;15.80;99.90;;;15.85;92.89;101909.41;4842803;29;20042;-67
2021/10/27 02:22:11;;;;;;;18.70;7.83;;;15.80;99.90;;;16.14;92.83;101955.38;4842499;29;20103;-68
2021/10/27 02:24:40;;;;;;;19.15;7.50;;;15.80;99.90;;;16.07;92.83;101960.78;4842520;29;20421;-67
2021/10/27 02:27:10;;;;;;;22.95;8.02;;;15.80;99.90;;;16.14;92.75;101954.50;4842877;29;20489;-67
2021/10/27 02:29:39;;;;;;;18.05;6.65;;;15.80;99.90;;;16.08;92.58;101955.47;4842447;29;20421;-67
2021/10/27 02:32:08;;;;;;;18.70;7.15;;;15.80;99.90;;;16.07;92.76;101950.09;4845298;29;20061;-67
2021/10/27 02:34:39;;;;;;;16.90;7.15;;;15.80;99.90;;;16.08;92.67;101951.91;4846270;29;20049;-67
2021/10/27 02:37:08;;;;;;;18.00;6.72;;;15.80;99.90;;;16.06;92.67;101957.25;4846050;29;20058;-67
2021/10/27 02:39:37;;;;;;;19.48;6.93;;;15.80;99.90;;;15.99;92.93;101970.66;4846059;29;20052;-67
2021/10/27 02:42:07;;;;;;;15.25;6.63;;;15.70;99.90;;;15.98;93.31;101964.44;4845731;29;20069;-67
2021/10/27 02:44:38;;;;;;;18.13;7.07;;;15.70;99.90;;;16.03;93.09;101959.94;4845965;29;20416;-67
2021/10/27 02:47:06;;;;;;;19.35;7.05;;;15.70;99.90;;;15.93;93.00;101960.91;4844734;29;20089;-67
2021/10/27 02:49:35;;;;;;;17.50;6.88;;;15.70;99.90;;;15.87;93.08;101944.09;4845809;29;20096;-67
2021/10/27 02:52:06;;;;;;;15.88;7.85;;;15.70;99.90;;;15.98;93.20;101971.56;4846188;29;20134;-67
2021/10/27 02:54:37;;;;;;;23.83;7.43;;;15.70;99.90;;;16.05;93.01;101976.81;4846007;29;20049;-67
2021/10/27 02:57:06;;;;;;;13.45;6.35;;;15.70;99.90;;;15.73;92.74;101920.19;4845791;29;20484;-67
2021/10/27 02:59:35;;;;;;;16.30;6.68;;;15.80;99.90;;;16.04;92.50;101966.16;4844469;29;20054;-67
2021/10/27 03:02:05;;;;;;;19.17;7.82;;;15.80;99.90;;;15.96;92.82;101963.56;4845331;29;20085;-68
2021/10/27 03:04:34;;;;;;;18.92;6.53;;;15.70;99.90;;;15.87;92.98;101973.44;4845368;29;20050;-68
2021/10/27 03:07:02;;;;;;;19.83;6.95;;;15.70;99.90;;;16.03;92.70;101967.06;4845340;29;20480;-68
2021/10/27 03:09:31;;;;;;;17.65;6.97;;;15.70;99.90;;;16.04;92.84;101969.72;4845540;29;20053;-68
2021/10/27 03:11:59;;;;;;;20.30;6.93;;;15.70;99.90;;;15.98;92.37;101950.22;4845297;29;20489;-68
2021/10/27 03:14:28;;;;;;;17.40;6.97;;;15.80;99.90;;;16.02;92.97;101976.88;4845197;29;20049;-68
2021/10/27 03:16:56;;;;;;;16.27;7.13;;;15.70;99.90;;;16.03;93.08;101970.63;4845420;29;20056;-67
2021/10/27 03:19:28;;;;;;;18.05;6.82;;;15.70;99.90;;;15.96;93.08;101955.56;4845149;29;20565;-68
2021/10/27 03:21:56;;;;;;;18.30;7.37;;;15.70;99.90;;;15.98;93.21;101974.22;4845377;29;20073;-68
2021/10/27 03:24:24;;;;;;;18.70;7.63;;;15.70;99.90;;;15.96;93.30;101976.91;4845230;29;20045;-67
2021/10/27 03:26:53;;;;;;;15.30;6.43;;;15.70;99.90;;;15.93;93.30;101973.41;4845265;29;20107;-67
2021/10/27 03:29:22;;;;;;;20.00;7.05;;;15.60;99.90;;;16.00;93.35;101975.09;4845250;29;20377;-67
2021/10/27 03:31:51;;;;;;;20.80;7.10;;;15.60;99.90;;;16.02;92.94;101971.53;4844097;29;20058;-68
2021/10/27 03:34:20;;;;;;;15.40;6.55;;;15.70;99.90;;;16.05;92.72;101973.25;4845131;29;20096;-67
2021/10/27 03:36:51;;;;;;;21.13;6.30;;;15.70;99.90;;;16.00;92.51;101964.44;4845137;29;20052;-67
2021/10/27 03:39:19;;;;;;;17.92;6.78;;;15.70;99.90;;;15.91;92.96;101970.72;4845361;29;20106;-67
2021/10/27 03:41:48;;;;;;;14.75;6.70;;;15.60;99.90;;;15.93;92.62;101973.41;4843983;29;20561;-67
2021/10/27 03:44:16;;;;;;;15.65;6.53;;;15.60;99.90;;;15.92;92.47;101975.16;4844351;29;20098;-68
2021/10/27 03:46:45;;;;;;;17.20;7.22;;;15.60;99.90;;;15.95;92.26;101974.28;4844621;29;20508;-67
2021/10/27 03:49:15;;;;;;;19.50;6.82;;;15.60;99.90;;;15.83;92.32;101969.88;4844859;29;20139;-67
2021/10/27 03:51:52;;;;;;;15.38;7.20;;;15.60;99.90;;;15.86;92.47;101967.22;4844602;29;20106;-68
2021/10/27 03:54:21;;;;;;;22.52;7.28;;;15.60;99.90;;;15.81;92.13;101961.03;4844573;29;20065;-67
2021/10/27 03:56:49;;;;;;;15.70;6.57;;;15.60;99.90;;;15.81;92.24;101977.06;4844483;29;20094;-67
2021/10/27 03:59:17;;;;;;;17.52;7.32;;;15.50;99.90;;;15.74;92.58;101967.31;4843508;29;20058;-67
2021/10/27 04:01:46;;;;;;;15.50;7.57;;;15.50;99.90;;;15.83;92.22;101974.38;4844704;29;20149;-67
2021/10/27 04:04:14;;;;;;;15.40;6.97;;;15.50;99.90;;;15.73;92.22;101962.00;4844285;29;20492;-68
2021/10/27 04:06:43;;;;;;;16.48;7.53;;;15.50;99.90;;;15.80;92.14;101961.94;4844568;29;20556;-67
2021/10/27 04:09:13;;;;;;;23.83;7.43;;;15.50;99.90;;;15.80;91.83;101967.25;4844271;29;20050;-67
2021/10/27 04:11:42;;;;;;;14.68;7.38;;;15.50;99.90;;;14.25;91.47;101701.84;4844246;29;20081;-68
2021/10/27 04:14:10;;;;;;;17.05;7.60;;;15.50;99.90;;;15.86;91.39;101974.31;4844032;29;20052;-70
2021/10/27 04:16:39;;;;;;;18.75;8.00;;;15.50;99.90;;;15.86;91.25;101975.22;4844619;29;20051;-72
2021/10/27 04:19:07;;;;;;;15.43;7.55;;;15.50;99.90;;;15.82;90.96;101964.56;4844069;29;20094;-71
2021/10/27 04:21:35;;;;;;;14.40;7.47;;;15.50;99.90;;;15.88;90.92;101975.19;4844079;29;20073;-70
2021/10/27 04:24:04;;;;;;;18.55;7.97;;;15.50;99.90;;;15.89;91.08;101993.00;4843775;29;20050;-69
2021/10/27 04:26:34;;;;;;;14.27;7.20;;;15.60;99.90;;;15.94;90.68;101978.72;4844213;29;20060;-70
2021/10/27 04:29:03;;;;;;;13.02;6.47;;;15.60;99.90;;;15.93;90.56;101979.59;4843914;29;20058;-70
2021/10/27 04:31:31;;;;;;;17.45;7.55;;;15.60;99.90;;;15.88;90.39;101968.09;4843837;29;20049;-69
2021/10/27 04:34:00;;;;;;;13.68;7.65;;;15.60;99.90;;;15.66;90.58;101941.59;4843822;29;20501;-70
2021/10/27 04:36:29;;;;;;;19.75;8.88;;;15.60;99.90;;;15.84;90.71;101978.78;4843743;29;20563;-70
2021/10/27 04:38:57;;;;;;;13.23;7.82;;;15.50;99.90;;;15.79;90.75;101975.28;4843989;29;20374;-69
2021/10/27 04:41:25;;;;;;;17.35;8.25;;;15.50;99.90;;;15.86;90.72;101979.66;4843909;29;20053;-70
2021/10/27 04:43:56;;;;;;;20.23;9.10;;;15.50;99.90;;;15.83;90.70;101977.91;4843610;29;20081;-70
2021/10/27 04:46:24;;;;;;;17.95;8.15;;;15.60;99.90;;;15.82;90.69;101972.56;4843912;29;20049;-70
2021/10/27 04:48:52;;;;;;;19.00;7.90;;;15.60;99.90;;;15.85;90.39;101993.91;4843583;29;20546;-69
2021/10/27 04:51:21;;;;;;;17.63;8.55;;;15.50;99.90;;;15.79;90.33;101977.97;4843767;29;20085;-70
2021/10/27 04:53:49;;;;;;;12.55;8.13;;;15.50;99.90;;;15.77;90.60;101983.31;4843626;29;20078;-70
2021/10/27 04:56:17;;;;;;;15.60;8.00;;;15.50;99.90;;;15.76;90.54;101965.50;4843466;29;20042;-70
2021/10/27 04:58:46;;;;;;;18.52;8.85;;;15.50;99.90;;;15.65;90.84;101964.72;4843365;29;20485;-70
2021/10/27 05:01:16;;;;;;;19.25;9.57;;;15.40;99.90;;;15.67;90.81;101964.69;4843016;29;20114;-70
2021/10/27 05:03:46;;;;;;;18.17;8.45;;;15.40;99.90;;;15.67;90.90;101975.38;4843112;29;20050;-70
2021/10/27 05:06:14;;;;;;;16.13;8.57;;;15.40;99.90;;;15.66;90.90;101963.81;4843456;29;20081;-70
2021/10/27 05:08:46;;;;;;;19.65;8.68;;;15.40;99.90;;;15.59;90.75;101937.19;4843195;29;20485;-70
2021/10/27 05:11:14;;;;;;;15.82;8.52;;;15.40;99.90;;;15.74;90.52;101972.63;4843769;29;20127;-69
2021/10/27 05:13:44;;;;;;;14.52;8.02;;;15.40;99.90;;;15.73;90.44;101986.00;4842098;29;20050;-70
2021/10/27 05:16:13;;;;;;;17.67;7.72;;;15.40;99.90;;;15.74;90.50;101979.75;4843110;29;20054;-69
2021/10/27 05:18:42;;;;;;;13.95;8.02;;;15.50;99.90;;;15.84;90.07;101976.13;4842982;29;20536;-70
2021/10/27 05:21:11;;;;;;;16.10;7.53;;;15.50;99.90;;;15.80;89.97;101972.59;4843085;29;20049;-70
2021/10/27 05:23:45;;;;;;;17.63;7.80;;;15.50;99.90;;;15.80;89.82;101977.03;4842963;29;20485;-70
2021/10/27 05:26:13;;;;;;;15.27;7.80;;;15.50;99.90;;;15.80;89.93;101979.72;4842860;29;20038;-71
2021/10/27 05:28:41;;;;;;;21.08;7.75;;;15.50;99.90;;;15.83;89.72;101980.56;4841904;29;20473;-70
2021/10/27 05:31:11;;;;;;;20.33;7.85;;;15.50;99.90;;;15.79;89.59;101969.94;4842823;29;20041;-71
2021/10/27 05:33:39;;;;;;;16.40;7.72;;;15.50;99.90;;;15.79;89.74;101969.94;4842772;29;20504;-70
2021/10/27 05:36:09;;;;;;;17.95;7.25;;;15.50;99.90;;;15.79;89.61;101968.19;4843068;29;20128;-70
2021/10/27 05:38:38;;;;;;;15.27;7.50;;;15.50;99.90;;;15.73;89.52;101970.88;4843316;29;20049;-70
2021/10/27 05:41:07;;;;;;;13.90;7.43;;;15.50;99.90;;;15.73;89.78;101970.00;4842923;29;20056;-69
2021/10/27 05:43:36;;;;;;;13.38;6.95;;;15.50;99.90;;;15.80;89.53;101975.25;4841697;29;20102;-69
2021/10/27 05:46:06;;;;;;;15.40;6.88;;;15.50;99.90;;;15.74;89.61;101967.31;4842850;29;20045;-70
2021/10/27 05:48:38;;;;;;;15.77;7.97;;;15.50;99.90;;;15.77;89.80;101966.41;4842812;29;20053;-70
2021/10/27 05:51:19;;;;;;;17.02;7.30;;;15.50;99.90;;;15.65;89.78;101955.81;4843044;29;20042;-70
2021/10/27 05:56:35;;;;;;;15.20;7.47;;;15.50;99.90;;;15.71;89.89;101971.78;4842734;29;20042;-70
2021/10/27 05:59:04;;;;;;;21.08;7.90;;;15.50;99.90;;;15.73;90.24;101970.88;4842424;29;20477;-69
2021/10/27 06:01:32;;;;;;;20.88;7.72;;;15.40;99.90;;;15.77;89.97;101977.97;4842408;29;20094;-70
2021/10/27 06:04:01;;;;;;;16.40;7.57;;;15.50;99.90;;;15.79;90.19;101984.19;4842440;29;20046;-70
2021/10/27 06:06:31;;;;;;;15.32;8.13;;;15.50;99.90;;;15.74;89.97;101987.75;4841664;29;20493;-70
2021/10/27 06:09:00;;;;;;;17.30;7.85;;;15.50;99.90;;;15.73;89.92;101981.56;4842805;29;20064;-69
2021/10/27 06:11:28;;;;;;;18.20;7.93;;;15.50;99.90;;;15.76;90.18;101984.19;4842550;29;20073;-70
2021/10/27 06:13:57;;;;;;;20.70;9.13;;;15.50;99.90;;;15.73;90.45;102002.00;4842501;29;20129;-70
2021/10/27 06:16:25;;;;;;;14.60;7.90;;;15.50;99.90;;;15.73;90.40;101999.34;4841238;29;20523;-70
2021/10/27 06:18:53;;;;;;;15.57;8.00;;;15.50;99.90;;;15.69;90.58;101982.47;4842505;29;20045;-70
2021/10/27 06:21:22;;;;;;;16.58;9.35;;;15.40;99.90;;;15.71;90.86;101991.34;4842142;29;20053;-69
2021/10/27 06:23:52;;;;;;;19.85;9.30;;;15.40;99.90;;;15.82;90.46;101993.91;4842430;29;20088;-70
2021/10/27 06:26:22;;;;;;;18.10;8.90;;;15.50;99.90;;;15.66;90.66;101977.16;4842324;29;20049;-70
2021/10/27 06:28:59;;;;;;;16.92;8.68;;;15.50;99.90;;;15.67;90.92;102010.06;4842555;29;20054;-69
2021/10/27 06:31:32;;;;;;;17.25;9.32;;;15.40;99.90;;;15.77;90.50;101995.75;4841206;29;20556;-70
2021/10/27 06:34:15;;;;;;;16.75;9.70;;;15.50;99.90;;;15.63;90.84;102002.97;4842314;29;20054;-70
2021/10/27 06:36:58;;;;;;;18.50;9.63;;;15.40;99.90;;;15.46;90.84;101981.75;4842029;29;20442;-70
2021/10/27 06:47:45;;;;;;;17.13;9.10;;;15.30;99.90;;;15.55;91.39;102032.34;4842332;29;20557;-69
2021/10/27 06:50:13;;;;;;;19.55;9.18;;;15.30;99.90;;;15.61;91.01;102023.44;4842194;29;20116;-70
2021/10/27 06:52:41;;;;;;;16.10;9.43;;;15.30;99.90;;;15.58;91.45;102026.13;4841950;29;20497;-70
2021/10/27 06:55:11;;;;;;;19.00;9.15;;;15.30;99.90;;;15.61;91.09;102023.44;4842288;29;20057;-69
2021/10/27 06:57:40;;;;;;;16.90;8.90;;;15.30;99.90;;;15.51;91.18;102011.94;4842567;29;20102;-69
2021/10/27 07:00:20;;;;;;;17.65;9.70;;;15.40;99.90;;;15.61;91.02;102042.09;4842129;29;20041;-70
2021/10/27 07:05:56;;;;;;;16.73;8.75;;;15.30;99.90;;;15.55;91.17;102018.13;4841847;29;20042;-69
2021/10/27 07:16:46;;;;;;;19.10;9.88;;;15.20;99.90;;;15.46;91.59;102042.19;4843252;29;20118;-67
2021/10/27 07:19:14;;;;;;;21.45;9.27;;;15.20;99.90;;;15.47;91.84;102039.50;4845106;29;20125;-66
2021/10/27 07:21:43;;;;;;;18.55;9.43;;;15.20;99.90;;;15.45;91.79;102045.78;4845088;29;20045;-66
2021/10/27 07:24:11;;;;;;;14.32;8.65;;;15.20;99.90;;;13.50;91.40;101703.97;4844952;29;20101;-67
2021/10/27 07:26:41;;;;;;;16.33;9.65;;;15.30;99.90;;;15.56;91.34;102044.81;4844894;29;20060;-67
2021/10/27 07:29:10;;;;;;;17.70;8.95;;;15.30;99.90;;;15.39;91.31;102012.84;4845222;29;20098;-68
2021/10/27 07:31:38;;;;;;;17.77;8.95;;;15.30;99.90;;;15.59;91.38;102036.78;4844884;29;20080;-68
2021/10/27 07:34:10;;;;;;;19.20;9.10;;;15.30;99.90;;;15.53;91.28;102039.47;4844661;29;20057;-67
2021/10/27 07:42:13;;;;;;;19.50;8.82;;;15.40;99.90;;;15.51;90.81;102013.72;4844746;29;20045;-69
2021/10/27 07:44:42;;;;;;;15.25;9.05;;;15.40;99.90;;;15.56;90.50;102033.25;4844728;29;20110;-68
2021/10/27 07:47:11;;;;;;;19.75;9.23;;;15.50;99.90;;;15.72;90.36;102061.59;4844508;29;20057;-69
2021/10/27 07:49:40;;;;;;;19.70;8.38;;;15.50;99.90;;;15.81;90.26;102056.22;4844759;29;20090;-68
2021/10/27 07:52:08;;;;;;;19.23;8.18;;;15.50;99.90;;;15.78;89.82;102067.78;4844552;29;20042;-70
2021/10/27 07:54:38;;;;;;;13.02;7.63;;;15.50;99.90;;;15.75;89.79;102064.25;4845095;29;20046;-68
2021/10/27 07:57:06;;;;;;;14.38;8.20;;;15.50;99.90;;;15.88;89.61;102071.25;4843404;29;20064;-68
2021/10/27 07:59:36;;;;;;;17.00;7.85;;;15.50;99.90;;;15.86;89.23;102073.06;4844895;29;20069;-69
2021/10/27 08:02:06;;;;;;;14.68;8.43;;;15.60;99.90;;;15.92;89.00;102075.69;4844476;29;20118;-68
2021/10/27 08:04:35;;;;;;;17.35;8.88;;;15.60;99.90;;;15.92;88.71;102067.69;4844255;29;20050;-69
2021/10/27 08:07:04;;;;;;;14.07;7.80;;;15.60;99.90;;;15.80;88.45;102038.41;4844091;29;20144;-69
2021/10/27 08:09:34;;;;;;;15.80;8.10;;;15.70;99.90;;;15.67;88.35;102021.63;4844403;29;20058;-68
2021/10/27 08:12:03;;;;;;;14.90;8.30;;;15.70;99.90;;;15.92;88.44;102075.69;4844325;29;20046;-68
2021/10/27 08:14:32;;;;;;;14.35;8.20;;;15.60;99.90;;;15.82;88.49;102047.28;4843913;29;20054;-68
2021/10/27 08:17:23;;;;;;;19.23;7.95;;;15.70;99.90;;;15.95;88.31;102071.22;4844451;29;20057;-69
2021/10/27 08:19:51;;;;;;;;;;;15.70;99.90;;;15.96;88.47;102072.09;4844468;29;20458;-66
2021/10/27 08:22:20;;;;;;;14.93;8.20;;;15.70;99.90;;;15.93;88.38;102070.34;4843111;29;19924;-68
2021/10/27 08:24:52;;;;;;;18.85;8.40;;;15.60;99.90;;;15.03;88.28;101902.91;4844285;29;20102;-67
2021/10/27 08:27:33;;;;;;;62.40;40.97;;;15.70;99.90;;;16.00;87.99;102079.19;4843033;29;20454;-69
2021/10/27 08:30:05;;;;;;;110.75;65.85;;;15.80;99.90;;;16.04;87.88;102076.50;4842595;29;20443;-69
2021/10/27 08:32:45;;;;;;;47.00;24.27;;;15.80;99.90;;;16.16;87.69;102075.53;4844120;29;20054;-69
2021/10/27 08:35:15;;;;;;;49.78;31.90;;;15.90;99.90;;;16.20;87.43;102077.28;4843915;29;20053;-68
2021/10/27 08:37:46;;;;;;;17.85;8.55;;;16.00;99.90;;;16.26;87.09;102083.44;4843756;29;20069;-65
2021/10/27 08:40:16;;;;;;;20.13;9.38;;;16.00;99.90;;;16.22;86.98;102087.00;4843630;29;20488;-65
2021/10/27 08:42:45;;;;;;;15.93;8.68;;;16.00;99.90;;;16.21;86.53;102074.59;4843652;29;20493;-68
2021/10/27 08:45:14;;;;;;;17.88;8.63;;;16.00;99.90;;;16.25;86.69;102083.44;4843929;29;20149;-68
2021/10/27 08:47:48;;;;;;;14.90;8.15;;;16.00;99.90;;;16.25;86.43;102080.78;4843618;29;20058;-68
2021/10/27 08:50:19;;;;;;;12.10;8.30;;;16.00;99.90;;;16.12;86.34;102071.09;4843520;29;20085;-70
2021/10/27 08:52:48;;;;;;;14.35;8.00;;;15.90;99.90;;;16.20;86.43;102085.28;4843639;29;20058;-75
2021/10/27 08:55:18;;;;;;;13.85;8.82;;;15.90;99.90;;;16.01;86.42;102067.59;4843491;29;20054;-68
2021/10/27 08:57:49;;;;;;;16.02;8.68;;;15.90;99.90;;;16.13;86.53;102089.78;4843333;29;20149;-69
2021/10/27 09:00:23;;;;;;;15.75;8.10;;;15.90;99.90;;;16.26;86.20;102095.88;4843406;29;20049;-69
2021/10/27 09:03:04;;;;;;;17.23;8.80;;;16.00;99.90;;;16.35;86.27;102098.50;4843662;29;20054;-69
2021/10/27 09:06:03;;;;;;;18.58;8.63;;;16.00;99.90;;;16.19;85.82;102076.38;4842244;29;20496;-75
2021/10/27 09:09:08;;;;;;;17.13;8.13;;;16.10;99.90;;;15.88;85.27;102002.78;4843767;29;20064;-72
2021/10/27 09:15:02;;;;;;;15.07;7.70;;;16.10;99.90;;;15.62;84.96;101962.06;4843505;29;20513;-66
2021/10/27 09:46:47;;;;;;;14.43;8.35;;;16.20;99.90;;;16.31;83.89;102115.44;5110562;27;20388;-65
2021/10/27 10:06:39;;;;;;;15.60;8.73;;;16.10;99.90;;;16.35;83.95;102113.63;5007768;28;20128;-66
2021/10/27 10:09:10;;;;;;;15.88;9.02;;;16.10;99.90;;;16.27;84.14;102093.22;5067394;28;20056;-65
2021/10/27 10:11:39;;;;;;;14.00;8.98;;;16.20;99.90;;;16.41;84.12;102111.81;5088766;28;20071;-66
2021/10/27 10:14:10;;;;;;;17.25;9.77;;;16.20;99.90;;;16.50;84.11;102118.88;5089558;28;20044;-67
2021/10/27 10:16:43;;;;;;;14.30;8.90;;;16.20;99.90;;;16.44;83.96;102094.84;5089609;28;20571;-66
2021/10/27 10:19:16;;;;;;;18.55;9.65;;;16.30;99.90;;;16.67;83.93;102138.31;5089702;28;20574;-66
2021/10/27 10:21:47;;;;;;;13.13;9.18;;;16.30;99.90;;;16.40;83.47;102102.00;5089813;28;20059;-65
2021/10/27 10:24:33;;;;;;;14.50;8.63;;;16.30;99.90;;;16.48;83.00;102140.25;5089529;28;20505;-67
2021/10/27 10:27:07;;;;;;;12.73;9.20;;;16.20;99.90;;;16.47;83.39;102140.25;5089439;28;20116;-66
2021/10/27 10:29:59;;;;;;;15.45;9.32;;;16.20;99.90;;;16.39;83.41;102132.31;5089668;28;20048;-66
2021/10/27 10:32:40;;;;;;;14.95;10.57;;;16.10;99.90;;;16.54;83.62;102125.97;5089285;28;20440;-67
2021/10/27 10:35:18;;;;;;;13.95;9.45;;;16.20;99.90;;;16.43;83.41;102123.38;5088347;28;20048;-67
2021/10/27 10:40:55;;;;;;;17.52;10.75;;;16.20;99.90;;;16.40;83.88;102133.16;5087672;28;20083;-67
2021/10/27 11:23:29;;;;;;;22.55;13.90;;;16.10;99.90;;;16.31;84.74;102127.91;5075166;28;20127;-67
2021/10/27 11:26:22;;;;;;;19.58;12.98;;;16.10;99.90;;;16.22;84.73;102121.72;5075198;28;20044;-67
2021/10/27 11:37:40;;;;;;;24.42;14.90;;;16.00;99.90;;;16.19;85.33;102121.75;5074685;28;20040;-64
2021/10/27 11:40:28;;;;;;;22.67;14.32;;;16.00;99.90;;;16.25;85.19;102118.16;5074622;28;20105;-64
2021/10/27 11:43:00;;;;;;;20.60;15.32;;;16.00;99.90;;;16.09;85.30;102092.47;5059120;28;20514;-66
2021/10/27 11:45:52;;;;;;;19.77;15.30;;;16.00;99.90;;;16.11;85.55;102114.69;5053998;28;20052;-69
2021/10/27 11:48:42;;;;;;;155.57;102.05;;;15.90;99.90;;;15.92;85.60;102070.34;5054462;28;20041;-64
2021/10/27 11:51:12;;;;;;;42.13;28.42;;;15.90;99.90;;;16.22;85.32;102095.03;5054867;28;20047;-68
2021/10/27 11:53:42;;;;;;;204.45;130.93;;;16.00;99.90;;;15.71;85.09;102028.72;5054587;28;20103;-69
2021/10/27 11:56:16;;;;;;;18.83;14.95;;;16.00;99.90;;;16.35;85.10;102109.19;5054319;28;20554;-65
2021/10/27 11:58:47;;;;;;;22.23;15.75;;;16.00;99.90;;;16.21;84.76;102085.25;5054464;28;20045;-68
2021/10/27 12:01:20;;;;;;;23.00;15.43;;;16.00;99.90;;;16.26;84.89;102106.56;5086419;28;20060;-69
2021/10/27 12:03:49;;;;;;;19.20;15.32;;;16.00;99.90;;;16.16;84.82;102115.56;5054362;28;20049;-68
2021/10/27 12:06:32;;;;;;;20.42;15.77;;;16.00;99.90;;;16.18;85.00;102105.75;5053945;28;20041;-68
2021/10/27 12:15:27;;;;;;;23.75;17.08;;;16.00;99.90;;;16.18;84.01;102084.41;5086003;28;20083;-68
2021/10/27 12:18:03;;;;;;;23.00;15.68;;;15.90;99.90;;;16.15;84.28;102082.63;5053942;28;20059;-68
2021/10/27 12:20:34;;;;;;;22.48;17.23;;;15.90;99.90;;;16.14;84.45;102071.97;5053764;28;20083;-68
2021/10/27 12:23:04;;;;;;;21.95;15.80;;;15.90;99.90;;;16.21;84.50;102076.34;5054009;28;20509;-68
2021/10/27 12:25:32;;;;;;;20.48;14.90;;;16.00;99.90;;;16.25;83.70;102080.78;5053685;28;20131;-68
2021/10/27 12:28:05;;;;;;;20.48;15.82;;;16.00;99.90;;;16.31;83.83;102070.03;5053671;28;20044;-68
2021/10/27 12:30:46;;;;;;;21.15;16.38;;;16.00;99.90;;;16.34;83.68;102062.00;5053918;28;20049;-68
2021/10/27 12:33:14;;;;;;;;;;;16.00;99.90;;;16.32;83.23;102053.09;5054011;28;20041;-68
2021/10/27 12:35:43;;;;;;;17.98;14.20;;;16.10;99.90;;;16.36;83.26;102073.56;5053416;28;19978;-68
2021/10/27 12:38:34;;;;;;;22.50;14.90;;;16.10;99.90;;;16.37;82.53;102069.09;5053582;28;20047;-68